Time;durP1;ratioP1;P1;durP2;ratioP2;P2;SDS_P1;SDS_P2;PMS_P1;PMS_P2;Temp;Humidity;BMP_temperature;BMP_pressure;BME280_temperature;BME280_humidity;BME280_pressure;Samples;Min_cycle;Max_cycle;Signal;HPM_P1;HPM_P2
2022/12/30 00:00:57;;;;;;;16.42;3.50;;;;;;;12.69;63.89;100896.44;5037971;28;20029;-68
2022/12/30 00:03:22;;;;;;;14.73;3.67;;;;;;;12.51;64.03;100901.97;5029482;28;20034;-67
2022/12/30 00:05:48;;;;;;;22.48;3.63;;;;;;;12.39;64.26;100899.28;5027272;28;20029;-69
2022/12/30 00:10:57;;;;;;;16.38;3.63;;;;;;;11.91;65.46;100917.56;5034153;28;20692;-68
2022/12/30 00:33:09;;;;;;;16.15;3.45;;;;;;;11.87;65.23;100909.09;5033798;28;20532;-68
2022/12/30 00:35:37;;;;;;;15.43;3.03;;;;;;;11.68;66.61;100914.78;5016271;28;20037;-67
2022/12/30 00:38:02;;;;;;;25.00;4.57;;;;;;;12.08;65.30;100934.66;5033482;28;20076;-67
2022/12/30 00:40:27;;;;;;;12.52;3.30;;;;;;;11.89;66.31;100914.28;5033468;28;20034;-67
2022/12/30 00:43:08;;;;;;;13.48;2.42;;;;;;;11.61;67.44;100925.66;5034199;28;20061;-67
2022/12/30 00:45:35;;;;;;;20.33;5.23;;;;;;;11.84;66.76;100923.03;5033468;28;20457;-68
2022/12/30 00:56:14;;;;;;;26.65;4.68;;;;;;;11.38;68.33;100922.84;5022296;28;20230;-69
2022/12/30 00:58:39;;;;;;;22.70;4.43;;;;;;;11.44;68.71;100928.16;5033013;28;20120;-66
2022/12/30 01:01:04;;;;;;;13.82;3.72;;;;;;;11.07;69.62;100934.66;5033560;28;20042;-67
2022/12/30 01:03:30;;;;;;;21.30;3.58;;;;;;;11.25;69.31;100912.28;5032915;28;20561;-66
2022/12/30 01:05:55;;;;;;;28.02;3.97;;;;;;;11.68;67.53;100931.78;5033410;28;20083;-67
2022/12/30 01:08:21;;;;;;;18.98;4.40;;;;;;;11.75;67.29;100927.13;5033088;28;20107;-66
2022/12/30 01:10:46;;;;;;;18.60;3.55;;;;;;;11.75;67.08;100939.75;5031634;28;20037;-68
2022/12/30 01:13:11;;;;;;;26.00;4.18;;;;;;;12.09;66.36;100936.28;5033010;28;20069;-68
2022/12/30 01:15:37;;;;;;;22.23;3.80;;;;;;;12.59;64.12;100947.44;5031861;28;20045;-67
2022/12/30 01:18:02;;;;;;;26.15;4.00;;;;;;;11.75;66.82;100937.91;5032303;28;20562;-68
2022/12/30 01:20:28;;;;;;;27.33;3.75;;;;;;;11.82;66.86;100946.69;5032274;28;20136;-67
2022/12/30 01:22:53;;;;;;;35.58;5.07;;;;;;;11.74;66.67;100946.19;5030510;28;20037;-67
2022/12/30 01:25:19;;;;;;;17.90;3.35;;;;;;;12.26;64.89;100951.53;5032910;28;20026;-67
2022/12/30 01:27:50;;;;;;;21.38;3.08;;;;;;;11.95;66.41;100967.22;5032120;28;20049;-68
2022/12/30 01:30:15;;;;;;;20.58;3.33;;;;;;;11.86;66.73;100966.72;5031987;28;20120;-69
2022/12/30 01:32:41;;;;;;;20.83;4.57;;;;;;;12.76;64.12;100972.63;5032307;28;20033;-67
2022/12/30 01:35:07;;;;;;;24.13;3.67;;;;;;;12.12;64.40;100973.56;5032772;28;20164;-67
2022/12/30 01:37:33;;;;;;;15.90;3.85;;;;;;;12.16;65.17;100980.13;5032573;28;20041;-66
2022/12/30 01:39:58;;;;;;;22.90;3.33;;;;;;;11.79;66.21;100982.16;5032937;28;20102;-69
2022/12/30 01:42:35;;;;;;;17.98;3.40;;;;;;;12.40;64.07;100989.88;5032620;28;20156;-70
2022/12/30 01:45:19;;;;;;;18.00;3.60;;;;;;;12.64;63.88;100998.81;5032621;28;20033;-67
2022/12/30 01:47:52;;;;;;;36.22;4.45;;;;;;;12.85;63.21;100998.19;5031542;28;20167;-69
2022/12/30 01:50:41;;;;;;;14.25;3.25;;;;;;;12.34;63.68;100999.69;5014438;28;20041;-70
2022/12/30 01:53:13;;;;;;;14.77;3.42;;;;;;;12.03;64.86;100991.91;4970695;28;20140;-68
2022/12/30 01:55:45;;;;;;;20.85;4.25;;;;;;;12.35;64.10;101006.75;4973286;28;20121;-66
2022/12/30 01:58:38;;;;;;;19.95;3.30;;;;;;;12.12;64.29;101008.59;4990557;28;20612;-67
2022/12/30 02:01:04;;;;;;;20.02;3.40;;;;;;;12.56;63.30;101007.25;4990300;28;20054;-68
2022/12/30 02:03:44;;;;;;;23.23;2.88;;;;;;;12.74;63.00;101010.63;4975550;28;20049;-67
2022/12/30 02:06:11;;;;;;;19.25;3.47;;;;;;;12.12;64.65;101009.41;4970623;28;20491;-67
2022/12/30 02:08:36;;;;;;;22.27;3.78;;;;;;;12.13;65.12;101007.50;4981406;28;20068;-67
2022/12/30 02:11:04;;;;;;;12.50;3.13;;;;;;;12.00;64.89;101013.13;4989234;28;20042;-69
2022/12/30 02:13:29;;;;;;;13.02;2.80;;;;;;;11.96;66.19;101001.16;4970822;28;20175;-67
2022/12/30 02:16:21;;;;;;;23.17;3.58;;;;;;;11.94;65.56;100996.00;4971075;28;20178;-67
2022/12/30 02:19:12;;;;;;;27.65;3.35;;;;;;;11.88;66.16;100996.94;4951074;29;20055;-67
2022/12/30 02:22:11;;;;;;;20.35;3.25;;;;;;;11.88;66.30;100986.16;4936412;29;20042;-68
2022/12/30 02:24:58;;;;;;;15.38;2.67;;;;;;;11.92;66.29;100992.72;4951161;29;20051;-67
2022/12/30 02:27:58;;;;;;;11.13;3.55;;;;;;;12.38;64.71;100983.09;4950995;29;20051;-67
2022/12/30 02:30:50;;;;;;;24.33;4.07;;;;;;;12.53;63.25;100981.56;4962238;28;20077;-67
2022/12/30 02:33:25;;;;;;;13.50;2.80;;;;;;;12.21;64.39;100977.53;4970368;28;20054;-68
2022/12/30 02:36:08;;;;;;;22.65;4.32;;;;;;;12.46;63.34;100963.88;4970229;28;20045;-67
2022/12/30 02:38:44;;;;;;;17.88;3.33;;;;;;;12.18;64.25;100968.06;4966394;28;20126;-68
2022/12/30 02:47:03;;;;;;;21.92;3.08;;;;;;;11.89;65.24;100966.25;4989597;28;20133;-66
2022/12/30 02:49:32;;;;;;;16.00;3.13;;;;;;;12.03;64.76;100970.38;4989344;28;20042;-66
2022/12/30 02:52:14;;;;;;;16.35;3.75;;;;;;;12.65;62.75;100965.38;4989885;28;20124;-68
2022/12/30 02:54:41;;;;;;;15.30;3.72;;;;;;;12.49;63.21;100972.31;4993654;28;20062;-66
2022/12/30 02:57:31;;;;;;;17.45;4.35;;;;;;;12.32;63.68;100968.66;5031431;28;20045;-66
2022/12/30 03:06:13;;;;;;;22.77;4.43;;;;;;;12.23;64.26;100964.66;5038188;28;20132;-67
2022/12/30 03:08:59;;;;;;;25.00;3.83;;;;;;;12.46;62.84;100958.47;5037547;28;20105;-67
2022/12/30 03:11:32;;;;;;;32.90;3.97;;;;;;;12.03;64.48;100953.38;5037196;28;20053;-68
2022/12/30 03:14:35;;;;;;;18.40;4.18;;;;;;;11.86;65.04;100957.81;5037112;28;20115;-68
2022/12/30 03:17:08;;;;;;;20.17;3.25;;;;;;;12.24;63.26;100955.53;5037499;28;20116;-67
2022/12/30 03:19:42;;;;;;;12.23;3.28;;;;;;;12.21;63.70;100964.91;5037814;28;20045;-67
2022/12/30 03:27:03;;;;;;;14.07;3.65;;;;;;;12.48;61.96;100957.16;5038268;28;20028;-67
2022/12/30 03:27:44;;;;;;;16.65;4.05;;;;;;;12.96;59.87;100959.59;5037809;28;20040;-69
2022/12/30 03:30:11;;;;;;;16.02;2.90;;;;;;;12.43;61.80;100973.25;5052508;28;20069;-67
2022/12/30 03:32:37;;;;;;;24.85;3.50;;;;;;;12.73;59.88;100973.13;5053196;28;20103;-67
2022/12/30 03:35:03;;;;;;;14.98;3.15;;;;;;;12.45;61.42;100976.53;5037461;28;20140;-67
2022/12/30 03:37:39;;;;;;;26.25;4.35;;;;;;;11.72;63.28;100977.91;5037698;28;20025;-67
2022/12/30 03:40:12;;;;;;;12.18;4.57;;;;;;;12.01;62.40;100968.97;5038209;28;20482;-67
2022/12/30 03:42:37;;;;;;;23.33;5.25;;;;;;;12.42;62.09;100984.25;5037388;28;20041;-68
2022/12/30 03:45:04;;;;;;;22.88;3.90;;;;;;;12.19;62.26;100996.66;5037495;28;20444;-67
2022/12/30 03:47:30;;;;;;;15.20;3.35;;;;;;;12.18;62.55;100980.72;5019602;28;20044;-66
2022/12/30 03:49:55;;;;;;;23.58;4.22;;;;;;;12.27;61.97;100982.84;5037383;28;20354;-68
2022/12/30 03:52:21;;;;;;;18.83;4.38;;;;;;;12.15;61.92;100975.78;5038121;28;20116;-67
2022/12/30 03:54:48;;;;;;;19.25;3.55;;;;;;;11.80;63.26;100973.00;5037476;28;20462;-67
2022/12/30 03:57:14;;;;;;;21.33;4.82;;;;;;;11.56;64.43;100990.09;5037333;28;20535;-67
2022/12/30 03:59:40;;;;;;;9.43;3.55;;;;;;;12.22;61.93;100989.97;5037519;28;20029;-68
2022/12/30 04:02:06;;;;;;;18.08;4.35;;;;;;;11.82;62.63;100997.00;5037517;28;20049;-68
2022/12/30 04:04:31;;;;;;;23.38;4.22;;;;;;;11.90;62.12;100980.53;5037201;28;20465;-68
2022/12/30 04:06:57;;;;;;;12.55;3.60;;;;;;;11.88;62.54;100978.06;5037729;28;20438;-67
2022/12/30 04:09:23;;;;;;;16.95;3.55;;;;;;;12.13;61.95;100975.19;5035035;28;20038;-68
2022/12/30 04:11:48;;;;;;;21.98;4.28;;;;;;;11.87;62.06;100981.00;5034209;28;20068;-67
2022/12/30 04:14:13;;;;;;;23.63;3.60;;;;;;;11.68;63.01;100977.53;5034009;28;20175;-69
2022/12/30 04:16:39;;;;;;;19.38;3.53;;;;;;;11.66;63.42;100973.41;5034180;28;20124;-68
2022/12/30 04:19:04;;;;;;;18.27;5.60;;;;;;;12.06;61.29;100978.00;5034638;28;20533;-68
2022/12/30 04:21:30;;;;;;;16.88;4.32;;;;;;;12.52;59.95;100977.22;5034068;28;20042;-68
2022/12/30 04:23:55;;;;;;;18.05;4.93;;;;;;;12.15;61.53;100975.78;5034134;28;20061;-67
2022/12/30 04:26:20;;;;;;;18.80;5.10;;;;;;;12.16;61.59;100982.81;5033704;28;20525;-67
2022/12/30 04:28:46;;;;;;;24.25;3.35;;;;;;;11.88;61.37;100982.63;5034052;28;20492;-67
2022/12/30 04:31:11;;;;;;;24.08;4.40;;;;;;;11.92;61.49;100981.13;5034462;28;20041;-67
2022/12/30 04:33:37;;;;;;;25.75;4.43;;;;;;;12.01;61.33;100985.94;5033874;28;20056;-68
2022/12/30 04:36:03;;;;;;;16.48;3.55;;;;;;;11.94;61.40;100984.41;5016022;28;20112;-67
2022/12/30 04:38:28;;;;;;;12.48;3.13;;;;;;;10.83;65.13;100993.91;5021905;28;20038;-68
2022/12/30 04:40:54;;;;;;;11.32;3.60;;;;;;;10.58;66.33;100989.38;5013869;28;20136;-67
2022/12/30 04:43:19;;;;;;;16.95;3.70;;;;;;;11.64;62.74;100987.09;5014146;28;20112;-68
2022/12/30 04:45:45;;;;;;;20.98;4.13;;;;;;;11.56;62.56;100986.59;5013793;28;20038;-66
2022/12/30 04:48:10;;;;;;;14.48;3.05;;;;;;;11.16;64.08;100978.22;5013802;28;20116;-67
2022/12/30 04:50:35;;;;;;;19.27;3.78;;;;;;;11.47;62.07;100978.03;5013765;28;20125;-66
2022/12/30 04:53:01;;;;;;;16.75;3.22;;;;;;;12.06;60.91;100969.94;5013877;28;20057;-67
2022/12/30 04:55:26;;;;;;;13.60;3.45;;;;;;;11.91;60.61;100977.59;5014794;28;20117;-66
2022/12/30 04:57:52;;;;;;;20.90;4.28;;;;;;;11.28;63.40;100976.41;5033821;28;20057;-66
2022/12/30 05:00:17;;;;;;;19.45;4.05;;;;;;;11.44;62.56;100979.28;5033197;28;20037;-68
2022/12/30 05:02:43;;;;;;;19.80;4.65;;;;;;;11.56;62.14;100987.41;5030117;28;20047;-67
2022/12/30 05:05:08;;;;;;;21.27;3.70;;;;;;;11.65;61.67;100982.53;5031554;28;20030;-67
2022/12/30 05:07:34;;;;;;;29.65;4.60;;;;;;;11.38;62.66;100987.44;5044901;28;20064;-68
2022/12/30 05:10:01;;;;;;;12.90;3.78;;;;;;;10.91;65.15;100986.34;5026331;28;20056;-68
2022/12/30 05:12:26;;;;;;;21.67;3.50;;;;;;;10.88;65.67;100984.13;5031752;28;20049;-68
2022/12/30 05:14:52;;;;;;;18.38;3.75;;;;;;;11.71;62.41;100985.19;5031648;28;20030;-68
2022/12/30 05:17:17;;;;;;;20.15;4.38;;;;;;;11.98;61.50;100986.41;5032309;28;20649;-67
2022/12/30 05:19:43;;;;;;;22.73;3.38;;;;;;;10.89;65.26;100998.41;5032276;28;20113;-68
2022/12/30 05:22:08;;;;;;;18.15;2.97;;;;;;;11.98;61.69;100982.91;5032480;28;20022;-68
2022/12/30 05:27:18;;;;;;;16.85;3.65;;;;;;;11.95;62.08;100980.69;5032240;28;20111;-67
2022/12/30 05:29:43;;;;;;;18.73;3.13;;;;;;;11.94;61.57;100979.84;5014878;28;20033;-67
2022/12/30 05:32:08;;;;;;;22.55;3.78;;;;;;;12.09;60.75;100984.78;5032635;28;20029;-68
2022/12/30 05:34:34;;;;;;;18.75;4.07;;;;;;;11.95;61.49;100981.47;5032656;28;20072;-69
2022/12/30 05:36:59;;;;;;;18.48;3.58;;;;;;;11.50;62.82;100985.63;5033303;28;20036;-66
2022/12/30 05:39:24;;;;;;;19.48;2.78;;;;;;;11.80;62.00;100978.41;5032783;28;20146;-69
2022/12/30 05:41:50;;;;;;;22.48;3.95;;;;;;;11.56;62.34;100984.72;5032460;28;20048;-68
2022/12/30 05:44:15;;;;;;;15.35;3.10;;;;;;;10.72;64.75;100975.81;5030862;28;20057;-67
2022/12/30 05:46:40;;;;;;;16.17;4.07;;;;;;;11.91;61.26;100974.13;5032524;28;20615;-66
2022/12/30 05:49:06;;;;;;;29.70;4.10;;;;;;;11.56;61.41;100968.56;5033049;28;20108;-68
2022/12/30 05:51:31;;;;;;;17.33;2.75;;;;;;;11.76;61.31;100974.53;5032305;28;20070;-68
2022/12/30 05:53:57;;;;;;;25.33;3.95;;;;;;;11.44;62.21;100971.22;5032510;28;20033;-67
2022/12/30 05:56:22;;;;;;;20.90;4.20;;;;;;;11.54;62.34;100970.66;5032143;28;20041;-68
2022/12/30 05:58:47;;;;;;;17.63;4.15;;;;;;;11.81;60.87;100958.50;5030715;28;20041;-69
2022/12/30 06:01:13;;;;;;;15.63;3.70;;;;;;;12.09;60.23;100964.06;5032858;28;20037;-66
2022/12/30 06:03:38;;;;;;;18.77;3.97;;;;;;;11.81;60.72;100965.75;5031905;28;20405;-69
2022/12/30 06:06:07;;;;;;;13.15;2.72;;;;;;;11.35;62.53;100961.00;5032307;28;20029;-69
2022/12/30 06:08:33;;;;;;;14.93;2.83;;;;;;;11.67;61.72;100965.16;5032337;28;20037;-68
2022/12/30 06:10:58;;;;;;;18.88;2.58;;;;;;;11.69;61.85;100970.28;5031865;28;20044;-68
2022/12/30 06:13:24;;;;;;;12.23;2.95;;;;;;;11.48;62.86;100966.19;5031825;28;20045;-68
2022/12/30 06:15:49;;;;;;;21.05;4.75;;;;;;;11.78;61.79;100956.28;5032085;28;20033;-67
2022/12/30 06:18:15;;;;;;;19.17;3.45;;;;;;;11.78;61.67;100956.28;5031897;28;20045;-68
2022/12/30 06:20:40;;;;;;;21.35;3.30;;;;;;;12.08;60.62;100948.97;5031777;28;20129;-67
2022/12/30 06:23:06;;;;;;;15.43;3.83;;;;;;;11.72;61.27;100949.13;5031474;28;20029;-68
2022/12/30 06:25:32;;;;;;;20.92;3.05;;;;;;;11.38;62.14;100945.22;5029063;28;20429;-68
2022/12/30 06:27:58;;;;;;;22.33;3.30;;;;;;;11.13;63.08;100944.50;5031120;28;20032;-67
2022/12/30 06:30:23;;;;;;;11.30;3.42;;;;;;;11.40;62.78;100943.13;5031552;28;20033;-67
2022/12/30 06:32:48;;;;;;;22.70;3.65;;;;;;;11.00;63.21;100952.75;5031027;28;20041;-67
2022/12/30 06:35:14;;;;;;;21.92;3.58;;;;;;;11.78;61.39;100940.13;5028932;28;20075;-69
2022/12/30 06:37:39;;;;;;;14.15;2.95;;;;;;;11.81;60.80;100944.22;5030609;28;20037;-68
2022/12/30 06:40:06;;;;;;;19.50;4.20;;;;;;;11.61;61.95;100943.66;5013133;28;20037;-68
2022/12/30 06:42:31;;;;;;;24.75;4.13;;;;;;;11.22;62.53;100950.41;5031040;28;20112;-68
2022/12/30 06:44:57;;;;;;;18.98;3.90;;;;;;;11.65;62.26;100940.28;5031159;28;20121;-68
2022/12/30 06:47:22;;;;;;;21.50;4.43;;;;;;;10.92;64.49;100941.47;5030569;28;20038;-69
2022/12/30 06:49:48;;;;;;;14.30;3.72;;;;;;;11.67;62.60;100940.91;5031693;28;20037;-68
2022/12/30 06:52:13;;;;;;;19.88;4.47;;;;;;;11.18;63.80;100933.88;5029694;28;20352;-67
2022/12/30 06:54:39;;;;;;;19.95;4.63;;;;;;;11.60;62.45;100934.75;5030129;28;20133;-67
2022/12/30 06:57:04;;;;;;;25.33;4.03;;;;;;;11.66;62.57;100935.75;5030532;28;20116;-67
2022/12/30 06:59:30;;;;;;;18.42;4.90;;;;;;;11.47;62.17;100934.97;5031493;28;20083;-68
2022/12/30 07:01:55;;;;;;;14.70;3.10;;;;;;;11.71;62.07;100934.03;5031057;28;20029;-66
2022/12/30 07:04:21;;;;;;;24.45;4.15;;;;;;;11.41;63.29;100931.31;5026025;28;20394;-68
2022/12/30 07:06:46;;;;;;;23.27;3.70;;;;;;;11.38;62.82;100922.84;5025086;28;20053;-67
2022/12/30 07:09:11;;;;;;;25.70;4.60;;;;;;;11.88;61.86;100918.00;5021439;28;20057;-67
2022/12/30 07:11:37;;;;;;;17.45;3.90;;;;;;;11.69;61.56;100919.16;5021619;28;20381;-66
2022/12/30 07:14:02;;;;;;;24.75;4.85;;;;;;;11.57;62.29;100921.78;5022424;28;20041;-69
2022/12/30 07:16:27;;;;;;;19.63;3.60;;;;;;;11.48;62.37;100918.56;5025586;28;20166;-67
2022/12/30 07:18:53;;;;;;;14.07;4.00;;;;;;;11.87;61.15;100933.34;5026710;28;20033;-68
2022/12/30 07:21:19;;;;;;;21.75;4.20;;;;;;;11.52;61.81;100927.00;5027405;28;20124;-68
2022/12/30 07:23:44;;;;;;;22.23;3.55;;;;;;;11.63;62.37;100918.16;5026686;28;20033;-68
2022/12/30 07:26:10;;;;;;;15.07;4.30;;;;;;;11.85;61.05;100916.59;5026446;28;20467;-67
2022/12/30 07:28:35;;;;;;;19.25;3.47;;;;;;;11.85;61.49;100905.03;5026482;28;20643;-68
2022/12/30 07:31:00;;;;;;;19.42;3.53;;;;;;;11.99;61.07;100904.56;5027896;28;20025;-69
2022/12/30 07:33:26;;;;;;;23.50;3.90;;;;;;;11.71;61.66;100898.19;5027346;28;20132;-69
2022/12/30 07:35:51;;;;;;;19.15;4.40;;;;;;;11.24;63.05;100894.53;5026944;28;20063;-68
2022/12/30 07:38:16;;;;;;;23.70;3.92;;;;;;;11.09;63.96;100891.41;5027724;28;20041;-70
2022/12/30 07:40:42;;;;;;;25.30;3.83;;;;;;;10.99;64.31;100874.97;5027542;28;20069;-68
2022/12/30 07:43:07;;;;;;;15.55;4.18;;;;;;;10.60;65.52;100887.88;5028217;28;20385;-67
2022/12/30 07:45:32;;;;;;;21.20;4.38;;;;;;;11.18;64.71;100876.59;5029726;28;20578;-67
2022/12/30 07:47:58;;;;;;;25.52;4.43;;;;;;;11.11;64.45;100876.69;5031987;28;20043;-68
2022/12/30 07:50:24;;;;;;;25.25;5.90;;;;;;;11.15;64.67;100868.97;5034301;28;20091;-67
2022/12/30 07:52:49;;;;;;;25.27;4.40;;;;;;;10.93;65.58;100871.34;5016402;28;20041;-66
2022/12/30 07:55:15;;;;;;;24.75;4.20;;;;;;;11.15;65.04;100864.44;5034456;28;20424;-68
2022/12/30 07:57:40;;;;;;;21.83;5.22;;;;;;;10.90;65.05;100861.06;5031906;28;20069;-68
2022/12/30 08:00:09;;;;;;;23.02;4.80;;;;;;;10.99;65.62;100854.31;5033138;28;20048;-68
2022/12/30 08:02:35;;;;;;;21.52;4.43;;;;;;;10.95;66.38;100868.41;5030925;28;20049;-68
2022/12/30 08:05:01;;;;;;;26.60;4.45;;;;;;;11.30;65.20;100856.75;5031776;28;20049;-68
2022/12/30 08:07:26;;;;;;;23.98;4.72;;;;;;;10.96;66.58;100845.88;5031424;28;20048;-68
2022/12/30 08:09:52;;;;;;;17.20;4.20;;;;;;;11.38;64.77;100842.97;5026155;28;20046;-69
2022/12/30 08:12:18;;;;;;;17.60;4.57;;;;;;;10.46;68.29;100853.31;5011722;28;20054;-67
2022/12/30 08:14:43;;;;;;;26.17;4.03;;;;;;;10.94;66.62;100839.91;5012114;28;20108;-69
2022/12/30 08:17:08;;;;;;;15.88;4.28;;;;;;;11.32;65.10;100829.63;5010745;28;20113;-68
2022/12/30 08:19:34;;;;;;;17.75;3.42;;;;;;;11.41;64.62;100834.47;5010426;28;20049;-67
2022/12/30 08:21:59;;;;;;;18.40;4.57;;;;;;;10.96;66.49;100821.69;5012385;28;20084;-68
2022/12/30 08:24:25;;;;;;;17.50;3.60;;;;;;;11.24;66.21;100822.69;5012494;28;20044;-67
2022/12/30 08:26:50;;;;;;;13.63;4.07;;;;;;;10.89;67.01;100829.03;5011801;28;20037;-69
2022/12/30 08:29:16;;;;;;;17.13;3.38;;;;;;;11.56;64.94;100814.38;5007518;28;20034;-70
2022/12/30 08:31:43;;;;;;;31.27;4.30;;;;;;;12.12;62.54;100811.94;5009887;28;20046;-69
2022/12/30 08:34:09;;;;;;;19.35;4.78;;;;;;;11.27;65.15;100807.97;5011857;28;20513;-68
2022/12/30 08:36:34;;;;;;;24.80;5.13;;;;;;;11.50;64.40;100814.22;5010672;28;20125;-70
2022/12/30 08:39:02;;;;;;;20.02;4.10;;;;;;;11.58;64.43;100802.28;4994841;28;20113;-67
2022/12/30 08:41:33;;;;;;;22.45;3.35;;;;;;;11.29;65.81;100801.31;5011537;28;20045;-67
2022/12/30 08:44:01;;;;;;;21.10;3.90;;;;;;;11.73;64.00;100799.19;5006656;28;20071;-68
2022/12/30 08:46:28;;;;;;;26.30;4.63;;;;;;;12.04;63.57;100790.75;5012115;28;20053;-69
2022/12/30 08:48:53;;;;;;;16.90;3.65;;;;;;;11.49;64.55;100784.84;5007410;28;20637;-68
2022/12/30 08:51:19;;;;;;;26.63;4.07;;;;;;;11.26;66.04;100779.44;5014423;28;20026;-68
2022/12/30 08:53:45;;;;;;;19.45;4.38;;;;;;;11.87;64.22;100777.16;5009615;28;20117;-68
2022/12/30 08:56:27;;;;;;;17.80;4.22;;;;;;;11.90;63.39;100775.88;5007169;28;20038;-69
2022/12/30 08:58:53;;;;;;;21.65;5.03;;;;;;;12.09;63.24;100772.00;5006269;28;20062;-69
2022/12/30 09:01:21;;;;;;;21.08;4.85;;;;;;;11.91;63.88;100774.84;5011380;28;20038;-69
2022/12/30 09:03:48;;;;;;;18.83;3.75;;;;;;;12.56;62.66;100767.34;5001143;28;20068;-69
2022/12/30 09:06:15;;;;;;;21.27;3.53;;;;;;;12.06;63.22;100754.44;5008961;28;20032;-69
2022/12/30 09:08:40;;;;;;;17.52;3.53;;;;;;;12.15;63.53;100763.78;5010168;28;20117;-68
2022/12/30 09:11:09;;;;;;;26.20;3.95;;;;;;;12.25;62.88;100771.25;5007159;28;20180;-69
2022/12/30 09:13:39;;;;;;;14.07;2.85;;;;;;;12.19;63.54;100761.44;5010412;28;20050;-69
2022/12/30 09:16:07;;;;;;;19.60;5.18;;;;;;;11.96;64.46;100750.72;5009619;28;20022;-68
2022/12/30 09:18:33;;;;;;;14.57;4.13;;;;;;;11.86;65.00;100751.31;5009895;28;20038;-66
2022/12/30 09:20:58;;;;;;;17.60;3.45;;;;;;;12.36;63.36;100756.97;5008311;28;20052;-69
2022/12/30 09:23:24;;;;;;;15.90;3.13;;;;;;;12.43;62.85;100746.84;5012064;28;20107;-68
2022/12/30 09:25:49;;;;;;;16.13;3.85;;;;;;;12.68;62.93;100738.41;5009181;28;20038;-68
2022/12/30 09:28:15;;;;;;;14.43;3.38;;;;;;;12.57;62.49;100739.31;5005765;28;20464;-66
2022/12/30 09:30:40;;;;;;;25.42;4.43;;;;;;;12.80;61.55;100731.09;5015321;28;20046;-68
2022/12/30 09:33:06;;;;;;;13.80;3.35;;;;;;;12.70;62.17;100720.13;5004590;28;20585;-68
2022/12/30 09:35:31;;;;;;;13.23;4.20;;;;;;;12.68;63.04;100724.94;5006933;28;20046;-69
2022/12/30 09:37:56;;;;;;;19.80;3.28;;;;;;;12.68;62.41;100716.84;5005435;28;20046;-68
2022/12/30 09:40:46;;;;;;;16.10;3.75;;;;;;;12.47;63.22;100714.84;5006535;28;20414;-68
2022/12/30 09:43:23;;;;;;;18.92;4.60;;;;;;;12.46;63.38;100729.41;4978890;28;20046;-68
2022/12/30 09:46:02;;;;;;;11.50;3.55;;;;;;;12.41;63.39;100724.72;4959596;28;20081;-67
2022/12/30 09:48:34;;;;;;;9.10;2.60;;;;;;;13.11;60.82;100717.09;4966531;28;20038;-70
2022/12/30 09:51:05;;;;;;;15.55;3.95;;;;;;;12.97;61.78;100705.00;4966835;28;20051;-68
2022/12/30 09:53:43;;;;;;;13.43;2.80;;;;;;;12.59;62.92;100707.53;4949311;28;20134;-69
2022/12/30 09:56:29;;;;;;;13.05;3.35;;;;;;;12.85;62.62;100701.53;4972870;28;20105;-69
2022/12/30 09:58:59;;;;;;;9.95;3.08;;;;;;;13.08;61.55;100698.72;4951469;28;20113;-67
2022/12/30 10:01:41;;;;;;;13.57;3.00;;;;;;;13.11;61.58;100690.13;4965019;28;20070;-67
2022/12/30 10:04:15;;;;;;;9.60;2.38;;;;;;;13.13;61.82;100704.19;4965226;28;20026;-68
2022/12/30 10:07:06;;;;;;;9.18;2.65;;;;;;;12.45;63.53;100696.22;4966698;28;20384;-66
2022/12/30 10:09:42;;;;;;;10.55;3.42;;;;;;;12.81;63.20;100693.13;4964529;28;20042;-67
2022/12/30 10:12:33;;;;;;;16.58;3.10;;;;;;;13.00;62.18;100691.00;4953367;28;20095;-67
2022/12/30 10:15:12;;;;;;;10.73;2.50;;;;;;;13.71;59.74;100682.13;4966386;28;20042;-67
2022/12/30 10:18:10;;;;;;;12.95;3.45;;;;;;;13.51;60.31;100677.28;4966262;28;20173;-69
2022/12/30 10:21:02;;;;;;;10.55;3.38;;;;;;;13.27;60.06;100662.31;4985574;28;20033;-68
2022/12/30 10:23:47;;;;;;;7.95;2.45;;;;;;;13.44;60.56;100659.63;5003739;28;20040;-68
2022/12/30 10:26:45;;;;;;;10.00;2.47;;;;;;;13.35;60.50;100645.72;5003937;28;20644;-69
2022/12/30 10:29:30;;;;;;;12.30;2.78;;;;;;;13.06;61.14;100646.91;4946265;28;20174;-67
2022/12/30 10:31:59;;;;;;;7.72;2.50;;;;;;;13.76;59.54;100620.91;4946304;28;20207;-68
2022/12/30 10:34:29;;;;;;;12.82;2.47;;;;;;;13.72;59.73;100602.78;4945926;28;20936;-66
2022/12/30 10:37:29;;;;;;;12.88;2.50;;;;;;;13.16;61.06;100602.03;4946359;29;20479;-66
2022/12/30 10:39:55;;;;;;;8.13;1.90;;;;;;;13.11;61.36;100601.94;4947224;29;20130;-68
2022/12/30 10:42:31;;;;;;;16.42;3.03;;;;;;;13.15;61.43;100597.66;4946319;28;20042;-67
2022/12/30 10:45:11;;;;;;;12.88;3.72;;;;;;;13.49;60.34;100589.50;4946333;28;20062;-67
2022/12/30 10:47:53;;;;;;;8.85;2.65;;;;;;;13.23;60.96;100586.47;4946994;28;20051;-69
2022/12/30 10:50:41;;;;;;;9.45;2.08;;;;;;;13.11;61.62;100574.13;4946208;29;20142;-68
2022/12/30 10:53:21;;;;;;;13.18;2.63;;;;;;;13.51;60.58;100560.38;4954161;28;20667;-68
2022/12/30 10:55:48;;;;;;;8.65;2.85;;;;;;;13.16;61.59;100545.34;4947069;29;20046;-69
2022/12/30 10:58:24;;;;;;;11.82;2.80;;;;;;;12.89;62.82;100543.56;4947172;29;20138;-67
2022/12/30 11:00:50;;;;;;;10.82;2.50;;;;;;;13.11;60.81;100536.34;4946704;29;20054;-68
2022/12/30 11:03:30;;;;;;;9.63;2.58;;;;;;;13.33;61.37;100523.69;4946454;28;20047;-68
2022/12/30 11:05:57;;;;;;;4.00;1.70;;;;;;;12.97;61.42;100522.38;4967701;28;20041;-67
2022/12/30 11:08:28;;;;;;;14.25;2.13;;;;;;;13.50;60.55;100512.84;5005033;28;20120;-68
2022/12/30 11:11:01;;;;;;;9.30;1.90;;;;;;;13.31;60.83;100506.13;4998235;28;20129;-68
2022/12/30 11:16:12;;;;;;;11.00;3.42;;;;;;;13.67;59.84;100492.81;5002149;28;20516;-66
2022/12/30 11:18:42;;;;;;;6.00;1.75;;;;;;;13.85;59.15;100488.94;4996030;28;20046;-68
2022/12/30 11:21:08;;;;;;;12.48;2.20;;;;;;;13.30;60.77;100466.72;5006726;28;20074;-69
2022/12/30 11:23:36;;;;;;;11.85;2.08;;;;;;;13.90;59.21;100461.97;5014199;28;20121;-67
2022/12/30 11:26:05;;;;;;;5.10;1.73;;;;;;;14.15;58.19;100450.59;5004874;28;20117;-67
2022/12/30 11:28:34;;;;;;;6.07;1.92;;;;;;;13.37;59.63;100441.16;5005226;28;20034;-67
2022/12/30 11:31:14;;;;;;;6.03;1.75;;;;;;;13.68;59.71;100439.63;5005747;28;20104;-68
2022/12/30 11:33:51;;;;;;;9.75;1.88;;;;;;;13.58;59.82;100431.41;5007154;28;20521;-67
2022/12/30 11:36:21;;;;;;;8.82;1.73;;;;;;;13.51;60.23;100428.09;5003409;28;20034;-67
2022/12/30 11:38:51;;;;;;;10.88;1.88;;;;;;;13.63;59.52;100413.38;5005317;28;20479;-68
2022/12/30 11:41:16;;;;;;;15.43;2.23;;;;;;;14.21;58.34;100401.69;5005614;28;20034;-68
2022/12/30 11:43:45;;;;;;;14.82;3.63;;;;;;;14.27;58.00;100389.06;5004408;28;20572;-69
2022/12/30 11:46:14;;;;;;;9.93;2.78;;;;;;;14.11;57.65;100375.41;4989675;28;20030;-70
2022/12/30 11:48:44;;;;;;;10.07;2.70;;;;;;;14.45;57.18;100367.00;5005361;28;20034;-67
2022/12/30 11:51:21;;;;;;;4.88;1.63;;;;;;;14.09;57.83;100355.16;4998377;28;20034;-68
2022/12/30 11:53:48;;;;;;;7.68;1.80;;;;;;;14.59;56.54;100360.06;5007743;28;20541;-67
2022/12/30 11:56:21;;;;;;;7.28;1.20;;;;;;;14.05;58.08;100335.94;5004891;28;20679;-67
2022/12/30 11:58:46;;;;;;;2.10;0.93;;;;;;;13.96;58.88;100329.41;5002976;28;20086;-71
2022/12/30 12:01:12;;;;;;;9.35;1.45;;;;;;;13.53;59.48;100307.16;5006909;28;20050;-71
2022/12/30 12:03:47;;;;;;;9.07;1.77;;;;;;;13.98;58.53;100305.63;5002895;28;20077;-71
2022/12/30 12:06:12;;;;;;;8.73;1.80;;;;;;;13.85;59.12;100298.00;5004718;28;20126;-72
2022/12/30 12:08:59;;;;;;;4.07;1.38;;;;;;;14.30;57.08;100270.44;5008048;28;20362;-70
2022/12/30 12:11:35;;;;;;;6.65;1.70;;;;;;;14.99;55.42;100257.44;5005224;28;20152;-73
2022/12/30 12:14:14;;;;;;;6.28;1.70;;;;;;;13.87;58.61;100246.41;5007069;28;20049;-74
2022/12/30 12:17:13;;;;;;;6.50;1.50;;;;;;;13.97;58.19;100217.56;5007734;28;20552;-72
2022/12/30 12:20:14;;;;;;;4.60;1.50;;;;;;;14.19;57.85;100213.88;4978518;28;20062;-71
2022/12/30 12:22:46;;;;;;;;;;;;;;;13.87;58.61;100216.69;4972451;28;20031;-72